sensor_id;sensor_type;location;lat;lon;timestamp;P1;durP1;ratioP1;P2;durP2;ratioP2
23712;SDS011;12035;49.978;8.298;2023-08-31T00:03:40;2.38;;;1.58;;
23712;SDS011;12035;49.978;8.298;2023-08-31T00:08:37;2.60;;;1.67;;
23712;SDS011;12035;49.978;8.298;2023-08-31T00:13:36;2.47;;;1.50;;
23712;SDS011;12035;49.978;8.298;2023-08-31T00:18:33;3.95;;;1.65;;
23712;SDS011;12035;49.978;8.298;2023-08-31T00:23:31;2.83;;;1.80;;
23712;SDS011;12035;49.978;8.298;2023-08-31T00:28:28;4.15;;;1.75;;
23712;SDS011;12035;49.978;8.298;2023-08-31T00:33:26;2.90;;;1.55;;
23712;SDS011;12035;49.978;8.298;2023-08-31T00:38:23;5.07;;;1.92;;
23712;SDS011;12035;49.978;8.298;2023-08-31T00:43:21;4.30;;;1.45;;
23712;SDS011;12035;49.978;8.298;2023-08-31T00:48:18;3.72;;;1.88;;
23712;SDS011;12035;49.978;8.298;2023-08-31T00:53:17;3.85;;;1.60;;
23712;SDS011;12035;49.978;8.298;2023-08-31T00:58:15;2.88;;;1.67;;
23712;SDS011;12035;49.978;8.298;2023-08-31T01:03:12;3.95;;;1.95;;
23712;SDS011;12035;49.978;8.298;2023-08-31T01:08:18;5.18;;;2.08;;
23712;SDS011;12035;49.978;8.298;2023-08-31T01:13:24;5.22;;;1.90;;
23712;SDS011;12035;49.978;8.298;2023-08-31T01:18:22;3.92;;;1.73;;
23712;SDS011;12035;49.978;8.298;2023-08-31T01:23:22;2.90;;;1.80;;
23712;SDS011;12035;49.978;8.298;2023-08-31T01:28:32;5.85;;;1.85;;
23712;SDS011;12035;49.978;8.298;2023-08-31T01:33:30;3.85;;;1.58;;
23712;SDS011;12035;49.978;8.298;2023-08-31T01:38:27;3.95;;;1.70;;
23712;SDS011;12035;49.978;8.298;2023-08-31T01:43:27;4.22;;;1.95;;
23712;SDS011;12035;49.978;8.298;2023-08-31T01:48:26;3.35;;;1.88;;
23712;SDS011;12035;49.978;8.298;2023-08-31T01:53:23;5.82;;;2.00;;
23712;SDS011;12035;49.978;8.298;2023-08-31T01:58:21;3.78;;;1.75;;
23712;SDS011;12035;49.978;8.298;2023-08-31T02:03:18;4.22;;;1.75;;
23712;SDS011;12035;49.978;8.298;2023-08-31T02:08:16;4.38;;;1.88;;
23712;SDS011;12035;49.978;8.298;2023-08-31T02:13:14;4.38;;;1.92;;
23712;SDS011;12035;49.978;8.298;2023-08-31T02:18:11;3.17;;;1.80;;
23712;SDS011;12035;49.978;8.298;2023-08-31T02:23:08;5.28;;;1.85;;
23712;SDS011;12035;49.978;8.298;2023-08-31T02:28:08;8.77;;;2.50;;
23712;SDS011;12035;49.978;8.298;2023-08-31T02:33:05;4.93;;;2.00;;
23712;SDS011;12035;49.978;8.298;2023-08-31T02:38:02;2.92;;;1.92;;
23712;SDS011;12035;49.978;8.298;2023-08-31T02:42:59;4.43;;;1.65;;
23712;SDS011;12035;49.978;8.298;2023-08-31T02:47:59;3.13;;;1.92;;
23712;SDS011;12035;49.978;8.298;2023-08-31T02:52:58;7.70;;;2.30;;
23712;SDS011;12035;49.978;8.298;2023-08-31T02:57:55;4.47;;;1.65;;
23712;SDS011;12035;49.978;8.298;2023-08-31T03:02:52;3.40;;;1.92;;
23712;SDS011;12035;49.978;8.298;2023-08-31T03:07:51;3.08;;;2.05;;
23712;SDS011;12035;49.978;8.298;2023-08-31T03:12:48;3.50;;;2.13;;
23712;SDS011;12035;49.978;8.298;2023-08-31T03:17:45;3.95;;;2.45;;
23712;SDS011;12035;49.978;8.298;2023-08-31T03:22:42;4.78;;;2.00;;
23712;SDS011;12035;49.978;8.298;2023-08-31T03:27:40;3.80;;;2.05;;
23712;SDS011;12035;49.978;8.298;2023-08-31T03:32:37;5.75;;;2.58;;
23712;SDS011;12035;49.978;8.298;2023-08-31T03:37:35;3.30;;;1.90;;
23712;SDS011;12035;49.978;8.298;2023-08-31T03:42:32;4.95;;;2.38;;
23712;SDS011;12035;49.978;8.298;2023-08-31T03:47:31;5.30;;;2.28;;
23712;SDS011;12035;49.978;8.298;2023-08-31T03:52:28;5.13;;;2.20;;
23712;SDS011;12035;49.978;8.298;2023-08-31T03:57:25;3.88;;;1.92;;
23712;SDS011;12035;49.978;8.298;2023-08-31T04:02:23;2.85;;;1.90;;
23712;SDS011;12035;49.978;8.298;2023-08-31T04:07:21;4.70;;;2.60;;
23712;SDS011;12035;49.978;8.298;2023-08-31T04:12:18;4.10;;;2.00;;
23712;SDS011;12035;49.978;8.298;2023-08-31T04:22:12;3.70;;;2.17;;
23712;SDS011;12035;49.978;8.298;2023-08-31T04:32:09;5.32;;;2.45;;
23712;SDS011;12035;49.978;8.298;2023-08-31T04:37:06;5.70;;;2.42;;
23712;SDS011;12035;49.978;8.298;2023-08-31T04:47:02;5.03;;;2.60;;
23712;SDS011;12035;49.978;8.298;2023-08-31T04:51:59;5.38;;;2.42;;
23712;SDS011;12035;49.978;8.298;2023-08-31T04:56:57;6.93;;;3.10;;
23712;SDS011;12035;49.978;8.298;2023-08-31T05:01:54;3.92;;;2.28;;
23712;SDS011;12035;49.978;8.298;2023-08-31T05:06:52;5.63;;;2.38;;
23712;SDS011;12035;49.978;8.298;2023-08-31T05:11:50;5.72;;;2.33;;
23712;SDS011;12035;49.978;8.298;2023-08-31T05:16:47;5.20;;;2.58;;
23712;SDS011;12035;49.978;8.298;2023-08-31T05:21:44;3.45;;;2.25;;
23712;SDS011;12035;49.978;8.298;2023-08-31T05:26:42;6.30;;;2.28;;
23712;SDS011;12035;49.978;8.298;2023-08-31T05:31:39;5.88;;;2.00;;
23712;SDS011;12035;49.978;8.298;2023-08-31T05:36:36;5.72;;;2.50;;
23712;SDS011;12035;49.978;8.298;2023-08-31T05:41:33;5.07;;;2.00;;
23712;SDS011;12035;49.978;8.298;2023-08-31T05:46:32;3.85;;;2.05;;
23712;SDS011;12035;49.978;8.298;2023-08-31T05:51:29;4.93;;;2.00;;
23712;SDS011;12035;49.978;8.298;2023-08-31T05:56:26;4.57;;;1.95;;
23712;SDS011;12035;49.978;8.298;2023-08-31T06:01:23;4.60;;;2.00;;
23712;SDS011;12035;49.978;8.298;2023-08-31T06:06:21;3.80;;;1.90;;
23712;SDS011;12035;49.978;8.298;2023-08-31T06:11:18;3.33;;;1.50;;
23712;SDS011;12035;49.978;8.298;2023-08-31T06:16:16;3.58;;;1.60;;
23712;SDS011;12035;49.978;8.298;2023-08-31T06:21:13;5.30;;;1.75;;
23712;SDS011;12035;49.978;8.298;2023-08-31T06:26:12;2.90;;;1.50;;
23712;SDS011;12035;49.978;8.298;2023-08-31T06:31:09;3.30;;;1.50;;
23712;SDS011;12035;49.978;8.298;2023-08-31T06:36:07;3.08;;;1.35;;
23712;SDS011;12035;49.978;8.298;2023-08-31T06:41:03;3.55;;;1.52;;
23712;SDS011;12035;49.978;8.298;2023-08-31T06:46:02;4.72;;;1.40;;
23712;SDS011;12035;49.978;8.298;2023-08-31T06:50:59;4.20;;;1.35;;
23712;SDS011;12035;49.978;8.298;2023-08-31T06:55:58;4.75;;;1.67;;
23712;SDS011;12035;49.978;8.298;2023-08-31T07:00:55;4.55;;;1.55;;
23712;SDS011;12035;49.978;8.298;2023-08-31T07:05:55;3.85;;;1.40;;
23712;SDS011;12035;49.978;8.298;2023-08-31T07:10:52;3.55;;;1.40;;
23712;SDS011;12035;49.978;8.298;2023-08-31T07:15:49;3.97;;;1.45;;
23712;SDS011;12035;49.978;8.298;2023-08-31T07:20:46;5.20;;;1.67;;
23712;SDS011;12035;49.978;8.298;2023-08-31T07:25:44;7.70;;;1.60;;
23712;SDS011;12035;49.978;8.298;2023-08-31T07:30:41;3.08;;;1.25;;
23712;SDS011;12035;49.978;8.298;2023-08-31T07:35:39;3.70;;;1.42;;
23712;SDS011;12035;49.978;8.298;2023-08-31T07:40:36;3.60;;;1.30;;
23712;SDS011;12035;49.978;8.298;2023-08-31T07:45:34;3.85;;;1.35;;
23712;SDS011;12035;49.978;8.298;2023-08-31T07:50:31;4.60;;;1.48;;
23712;SDS011;12035;49.978;8.298;2023-08-31T07:55:29;3.65;;;1.25;;
23712;SDS011;12035;49.978;8.298;2023-08-31T08:00:26;7.85;;;1.75;;
23712;SDS011;12035;49.978;8.298;2023-08-31T08:05:24;4.38;;;1.45;;
23712;SDS011;12035;49.978;8.298;2023-08-31T08:10:21;5.53;;;1.50;;
23712;SDS011;12035;49.978;8.298;2023-08-31T08:15:18;3.65;;;1.30;;
23712;SDS011;12035;49.978;8.298;2023-08-31T08:20:16;3.78;;;1.30;;
23712;SDS011;12035;49.978;8.298;2023-08-31T08:25:14;4.07;;;1.48;;
23712;SDS011;12035;49.978;8.298;2023-08-31T08:30:12;6.63;;;1.70;;
23712;SDS011;12035;49.978;8.298;2023-08-31T08:35:10;3.05;;;1.20;;
23712;SDS011;12035;49.978;8.298;2023-08-31T08:40:07;3.63;;;1.35;;
23712;SDS011;12035;49.978;8.298;2023-08-31T08:45:08;3.63;;;1.33;;
23712;SDS011;12035;49.978;8.298;2023-08-31T08:50:10;3.67;;;1.20;;
23712;SDS011;12035;49.978;8.298;2023-08-31T08:55:09;5.97;;;1.35;;
23712;SDS011;12035;49.978;8.298;2023-08-31T09:00:08;6.65;;;1.67;;
23712;SDS011;12035;49.978;8.298;2023-08-31T09:05:07;4.28;;;1.20;;
23712;SDS011;12035;49.978;8.298;2023-08-31T09:10:05;3.30;;;1.13;;
23712;SDS011;12035;49.978;8.298;2023-08-31T09:15:03;3.63;;;1.33;;
23712;SDS011;12035;49.978;8.298;2023-08-31T09:20:04;3.60;;;1.17;;
23712;SDS011;12035;49.978;8.298;2023-08-31T09:30:24;3.33;;;1.23;;
23712;SDS011;12035;49.978;8.298;2023-08-31T09:35:23;2.80;;;1.30;;
23712;SDS011;12035;49.978;8.298;2023-08-31T09:40:20;2.80;;;1.25;;
23712;SDS011;12035;49.978;8.298;2023-08-31T09:45:17;3.15;;;1.10;;
23712;SDS011;12035;49.978;8.298;2023-08-31T09:50:26;2.80;;;1.02;;
23712;SDS011;12035;49.978;8.298;2023-08-31T09:55:26;4.20;;;1.20;;
23712;SDS011;12035;49.978;8.298;2023-08-31T10:00:25;4.28;;;1.27;;
23712;SDS011;12035;49.978;8.298;2023-08-31T10:05:23;5.60;;;1.45;;
23712;SDS011;12035;49.978;8.298;2023-08-31T10:10:22;4.38;;;1.30;;
23712;SDS011;12035;49.978;8.298;2023-08-31T10:15:19;2.80;;;1.20;;
23712;SDS011;12035;49.978;8.298;2023-08-31T10:20:16;3.92;;;1.45;;
23712;SDS011;12035;49.978;8.298;2023-08-31T10:25:14;3.50;;;1.23;;
23712;SDS011;12035;49.978;8.298;2023-08-31T10:30:25;3.25;;;1.15;;
23712;SDS011;12035;49.978;8.298;2023-08-31T10:35:23;3.08;;;1.13;;
23712;SDS011;12035;49.978;8.298;2023-08-31T10:40:37;2.72;;;1.08;;
23712;SDS011;12035;49.978;8.298;2023-08-31T10:45:44;4.60;;;1.50;;
23712;SDS011;12035;49.978;8.298;2023-08-31T10:50:41;2.97;;;1.20;;
23712;SDS011;12035;49.978;8.298;2023-08-31T10:55:49;1.60;;;0.82;;
23712;SDS011;12035;49.978;8.298;2023-08-31T11:00:50;3.25;;;1.00;;
23712;SDS011;12035;49.978;8.298;2023-08-31T11:05:51;3.67;;;1.42;;
23712;SDS011;12035;49.978;8.298;2023-08-31T11:10:49;3.67;;;1.20;;
23712;SDS011;12035;49.978;8.298;2023-08-31T11:15:46;2.15;;;1.00;;
23712;SDS011;12035;49.978;8.298;2023-08-31T11:20:45;4.63;;;0.85;;
23712;SDS011;12035;49.978;8.298;2023-08-31T11:25:45;4.07;;;1.30;;
23712;SDS011;12035;49.978;8.298;2023-08-31T11:30:44;2.85;;;1.23;;
23712;SDS011;12035;49.978;8.298;2023-08-31T11:35:44;4.38;;;1.20;;
23712;SDS011;12035;49.978;8.298;2023-08-31T11:40:41;3.28;;;1.10;;
23712;SDS011;12035;49.978;8.298;2023-08-31T11:45:38;1.92;;;1.00;;
23712;SDS011;12035;49.978;8.298;2023-08-31T11:50:36;5.22;;;1.38;;
23712;SDS011;12035;49.978;8.298;2023-08-31T11:55:36;2.83;;;1.20;;
23712;SDS011;12035;49.978;8.298;2023-08-31T12:00:54;1.77;;;1.00;;
23712;SDS011;12035;49.978;8.298;2023-08-31T12:05:51;2.50;;;1.33;;
23712;SDS011;12035;49.978;8.298;2023-08-31T12:10:53;3.20;;;1.02;;
23712;SDS011;12035;49.978;8.298;2023-08-31T12:15:52;3.15;;;1.30;;
23712;SDS011;12035;49.978;8.298;2023-08-31T12:20:50;2.53;;;1.20;;
23712;SDS011;12035;49.978;8.298;2023-08-31T12:25:48;2.15;;;1.10;;
23712;SDS011;12035;49.978;8.298;2023-08-31T12:30:48;3.58;;;1.20;;
23712;SDS011;12035;49.978;8.298;2023-08-31T12:35:47;2.63;;;1.33;;
23712;SDS011;12035;49.978;8.298;2023-08-31T12:40:44;3.83;;;1.50;;
23712;SDS011;12035;49.978;8.298;2023-08-31T12:45:41;2.53;;;1.20;;
23712;SDS011;12035;49.978;8.298;2023-08-31T12:50:39;3.42;;;1.27;;
23712;SDS011;12035;49.978;8.298;2023-08-31T12:55:37;3.35;;;1.30;;
23712;SDS011;12035;49.978;8.298;2023-08-31T13:00:34;4.53;;;1.15;;
23712;SDS011;12035;49.978;8.298;2023-08-31T13:05:31;3.67;;;1.42;;
23712;SDS011;12035;49.978;8.298;2023-08-31T13:10:29;3.78;;;1.60;;
23712;SDS011;12035;49.978;8.298;2023-08-31T13:15:26;3.25;;;1.17;;
23712;SDS011;12035;49.978;8.298;2023-08-31T13:20:24;2.97;;;1.48;;
23712;SDS011;12035;49.978;8.298;2023-08-31T13:25:22;3.45;;;1.27;;
23712;SDS011;12035;49.978;8.298;2023-08-31T13:30:20;3.70;;;1.45;;
23712;SDS011;12035;49.978;8.298;2023-08-31T13:35:17;2.63;;;1.45;;
23712;SDS011;12035;49.978;8.298;2023-08-31T13:40:14;2.00;;;1.23;;
23712;SDS011;12035;49.978;8.298;2023-08-31T13:45:12;5.63;;;1.55;;
23712;SDS011;12035;49.978;8.298;2023-08-31T13:50:10;3.65;;;1.60;;
23712;SDS011;12035;49.978;8.298;2023-08-31T13:55:08;4.72;;;1.40;;
23712;SDS011;12035;49.978;8.298;2023-08-31T14:00:05;6.57;;;1.80;;
23712;SDS011;12035;49.978;8.298;2023-08-31T14:05:05;4.65;;;1.35;;
23712;SDS011;12035;49.978;8.298;2023-08-31T14:10:06;5.03;;;1.58;;
23712;SDS011;12035;49.978;8.298;2023-08-31T14:15:05;5.68;;;1.30;;
23712;SDS011;12035;49.978;8.298;2023-08-31T14:20:03;5.93;;;1.30;;
23712;SDS011;12035;49.978;8.298;2023-08-31T14:25:03;7.20;;;1.40;;
23712;SDS011;12035;49.978;8.298;2023-08-31T14:30:04;2.45;;;1.20;;
23712;SDS011;12035;49.978;8.298;2023-08-31T14:35:02;2.33;;;1.20;;
23712;SDS011;12035;49.978;8.298;2023-08-31T14:40:01;5.22;;;1.52;;
23712;SDS011;12035;49.978;8.298;2023-08-31T14:45:03;4.00;;;1.60;;
23712;SDS011;12035;49.978;8.298;2023-08-31T14:50:01;5.10;;;1.48;;
23712;SDS011;12035;49.978;8.298;2023-08-31T14:55:00;5.18;;;1.63;;
23712;SDS011;12035;49.978;8.298;2023-08-31T14:59:58;5.90;;;1.90;;
23712;SDS011;12035;49.978;8.298;2023-08-31T15:04:57;2.65;;;1.33;;
23712;SDS011;12035;49.978;8.298;2023-08-31T15:09:54;5.30;;;1.42;;
23712;SDS011;12035;49.978;8.298;2023-08-31T15:14:51;5.45;;;1.63;;
23712;SDS011;12035;49.978;8.298;2023-08-31T15:19:50;4.57;;;1.70;;
23712;SDS011;12035;49.978;8.298;2023-08-31T15:24:50;5.90;;;1.60;;
23712;SDS011;12035;49.978;8.298;2023-08-31T15:29:48;4.10;;;1.58;;
23712;SDS011;12035;49.978;8.298;2023-08-31T15:34:46;6.75;;;1.95;;
23712;SDS011;12035;49.978;8.298;2023-08-31T15:39:43;5.07;;;1.50;;
23712;SDS011;12035;49.978;8.298;2023-08-31T15:44:42;4.57;;;1.45;;
23712;SDS011;12035;49.978;8.298;2023-08-31T15:49:39;5.57;;;1.70;;
23712;SDS011;12035;49.978;8.298;2023-08-31T15:54:37;4.55;;;1.55;;
23712;SDS011;12035;49.978;8.298;2023-08-31T15:59:34;5.32;;;2.03;;
23712;SDS011;12035;49.978;8.298;2023-08-31T16:04:33;5.40;;;1.58;;
23712;SDS011;12035;49.978;8.298;2023-08-31T16:09:30;5.47;;;1.70;;
23712;SDS011;12035;49.978;8.298;2023-08-31T16:14:27;9.13;;;1.52;;
23712;SDS011;12035;49.978;8.298;2023-08-31T16:19:24;5.57;;;1.63;;
23712;SDS011;12035;49.978;8.298;2023-08-31T16:24:22;6.13;;;1.67;;
23712;SDS011;12035;49.978;8.298;2023-08-31T16:29:19;3.33;;;1.52;;
23712;SDS011;12035;49.978;8.298;2023-08-31T16:34:16;3.80;;;1.50;;
23712;SDS011;12035;49.978;8.298;2023-08-31T16:39:13;3.85;;;1.60;;
23712;SDS011;12035;49.978;8.298;2023-08-31T16:44:12;4.25;;;2.00;;
23712;SDS011;12035;49.978;8.298;2023-08-31T16:49:09;3.95;;;1.50;;
23712;SDS011;12035;49.978;8.298;2023-08-31T16:54:06;4.88;;;1.50;;
23712;SDS011;12035;49.978;8.298;2023-08-31T16:59:03;4.05;;;1.80;;
23712;SDS011;12035;49.978;8.298;2023-08-31T17:04:01;4.28;;;1.45;;
23712;SDS011;12035;49.978;8.298;2023-08-31T17:09:00;5.25;;;1.65;;
23712;SDS011;12035;49.978;8.298;2023-08-31T17:13:59;4.25;;;1.77;;
23712;SDS011;12035;49.978;8.298;2023-08-31T17:18:56;5.25;;;1.75;;
23712;SDS011;12035;49.978;8.298;2023-08-31T17:23:54;4.18;;;1.52;;
23712;SDS011;12035;49.978;8.298;2023-08-31T17:28:52;5.05;;;1.77;;
23712;SDS011;12035;49.978;8.298;2023-08-31T17:33:49;5.88;;;1.85;;
23712;SDS011;12035;49.978;8.298;2023-08-31T17:38:48;3.97;;;1.60;;
23712;SDS011;12035;49.978;8.298;2023-08-31T17:43:46;6.13;;;1.90;;
23712;SDS011;12035;49.978;8.298;2023-08-31T17:48:43;3.97;;;1.63;;
23712;SDS011;12035;49.978;8.298;2023-08-31T17:53:40;3.28;;;1.52;;
23712;SDS011;12035;49.978;8.298;2023-08-31T17:58:37;7.97;;;1.90;;
23712;SDS011;12035;49.978;8.298;2023-08-31T18:03:36;5.97;;;2.03;;
23712;SDS011;12035;49.978;8.298;2023-08-31T18:08:33;7.32;;;2.33;;
23712;SDS011;12035;49.978;8.298;2023-08-31T18:13:30;6.40;;;1.95;;
23712;SDS011;12035;49.978;8.298;2023-08-31T18:18:27;3.90;;;1.67;;
23712;SDS011;12035;49.978;8.298;2023-08-31T18:23:26;5.32;;;1.92;;
23712;SDS011;12035;49.978;8.298;2023-08-31T18:28:23;4.63;;;1.90;;
23712;SDS011;12035;49.978;8.298;2023-08-31T18:33:20;6.07;;;1.70;;
23712;SDS011;12035;49.978;8.298;2023-08-31T18:38:18;5.97;;;1.75;;
23712;SDS011;12035;49.978;8.298;2023-08-31T18:43:18;5.72;;;2.40;;
23712;SDS011;12035;49.978;8.298;2023-08-31T18:48:15;6.13;;;2.15;;
23712;SDS011;12035;49.978;8.298;2023-08-31T18:53:13;5.00;;;1.73;;
23712;SDS011;12035;49.978;8.298;2023-08-31T18:58:10;5.28;;;2.00;;
23712;SDS011;12035;49.978;8.298;2023-08-31T19:03:09;4.03;;;1.70;;
23712;SDS011;12035;49.978;8.298;2023-08-31T19:08:07;5.60;;;1.98;;
23712;SDS011;12035;49.978;8.298;2023-08-31T19:13:04;6.15;;;2.20;;
23712;SDS011;12035;49.978;8.298;2023-08-31T19:18:02;4.97;;;1.98;;
23712;SDS011;12035;49.978;8.298;2023-08-31T19:23:03;5.43;;;1.98;;
23712;SDS011;12035;49.978;8.298;2023-08-31T19:28:00;5.32;;;1.95;;
23712;SDS011;12035;49.978;8.298;2023-08-31T19:33:00;5.70;;;2.03;;
23712;SDS011;12035;49.978;8.298;2023-08-31T19:37:57;7.15;;;1.83;;
23712;SDS011;12035;49.978;8.298;2023-08-31T19:42:56;5.82;;;1.80;;
23712;SDS011;12035;49.978;8.298;2023-08-31T19:47:53;4.90;;;1.90;;
23712;SDS011;12035;49.978;8.298;2023-08-31T19:52:52;6.55;;;1.98;;
23712;SDS011;12035;49.978;8.298;2023-08-31T19:57:49;6.68;;;2.30;;
23712;SDS011;12035;49.978;8.298;2023-08-31T20:02:47;6.88;;;2.15;;
23712;SDS011;12035;49.978;8.298;2023-08-31T20:07:44;5.97;;;1.80;;
23712;SDS011;12035;49.978;8.298;2023-08-31T20:12:43;6.68;;;1.90;;
23712;SDS011;12035;49.978;8.298;2023-08-31T20:17:40;6.60;;;1.92;;
23712;SDS011;12035;49.978;8.298;2023-08-31T20:22:39;5.15;;;1.50;;
23712;SDS011;12035;49.978;8.298;2023-08-31T20:27:36;5.88;;;1.70;;
23712;SDS011;12035;49.978;8.298;2023-08-31T20:32:33;3.15;;;1.40;;
23712;SDS011;12035;49.978;8.298;2023-08-31T20:37:33;5.65;;;1.98;;
23712;SDS011;12035;49.978;8.298;2023-08-31T20:42:31;4.15;;;1.58;;
23712;SDS011;12035;49.978;8.298;2023-08-31T20:47:28;5.28;;;2.40;;
23712;SDS011;12035;49.978;8.298;2023-08-31T20:52:25;5.28;;;1.70;;
23712;SDS011;12035;49.978;8.298;2023-08-31T20:57:25;5.07;;;1.70;;
23712;SDS011;12035;49.978;8.298;2023-08-31T21:02:23;4.43;;;1.90;;
23712;SDS011;12035;49.978;8.298;2023-08-31T21:07:21;4.53;;;1.80;;
23712;SDS011;12035;49.978;8.298;2023-08-31T21:12:18;5.57;;;1.90;;
23712;SDS011;12035;49.978;8.298;2023-08-31T21:17:15;4.65;;;1.88;;
23712;SDS011;12035;49.978;8.298;2023-08-31T21:22:14;6.28;;;2.00;;
23712;SDS011;12035;49.978;8.298;2023-08-31T21:27:11;6.13;;;2.15;;
23712;SDS011;12035;49.978;8.298;2023-08-31T21:32:08;4.63;;;1.70;;
23712;SDS011;12035;49.978;8.298;2023-08-31T21:37:05;4.60;;;1.80;;
23712;SDS011;12035;49.978;8.298;2023-08-31T21:42:03;5.15;;;1.90;;
23712;SDS011;12035;49.978;8.298;2023-08-31T21:47:01;3.65;;;1.40;;
23712;SDS011;12035;49.978;8.298;2023-08-31T21:51:58;4.93;;;1.52;;
23712;SDS011;12035;49.978;8.298;2023-08-31T21:56:55;4.88;;;1.67;;
23712;SDS011;12035;49.978;8.298;2023-08-31T22:01:54;4.70;;;1.45;;
23712;SDS011;12035;49.978;8.298;2023-08-31T22:06:51;5.65;;;1.70;;
23712;SDS011;12035;49.978;8.298;2023-08-31T22:11:50;4.75;;;1.70;;
23712;SDS011;12035;49.978;8.298;2023-08-31T22:16:47;3.80;;;1.55;;
23712;SDS011;12035;49.978;8.298;2023-08-31T22:21:46;3.92;;;1.77;;
23712;SDS011;12035;49.978;8.298;2023-08-31T22:26:43;3.20;;;1.40;;
23712;SDS011;12035;49.978;8.298;2023-08-31T22:31:40;4.40;;;1.55;;
23712;SDS011;12035;49.978;8.298;2023-08-31T22:36:37;4.35;;;1.60;;
23712;SDS011;12035;49.978;8.298;2023-08-31T22:41:36;4.18;;;1.65;;
23712;SDS011;12035;49.978;8.298;2023-08-31T22:46:37;4.72;;;1.38;;
23712;SDS011;12035;49.978;8.298;2023-08-31T22:51:34;4.97;;;1.75;;
23712;SDS011;12035;49.978;8.298;2023-08-31T22:56:31;4.55;;;1.75;;
23712;SDS011;12035;49.978;8.298;2023-08-31T23:01:29;3.35;;;1.77;;
23712;SDS011;12035;49.978;8.298;2023-08-31T23:06:26;3.40;;;1.63;;
23712;SDS011;12035;49.978;8.298;2023-08-31T23:11:23;6.15;;;2.10;;
23712;SDS011;12035;49.978;8.298;2023-08-31T23:16:21;4.40;;;2.05;;
23712;SDS011;12035;49.978;8.298;2023-08-31T23:21:20;3.88;;;1.90;;
23712;SDS011;12035;49.978;8.298;2023-08-31T23:26:17;3.90;;;1.90;;
23712;SDS011;12035;49.978;8.298;2023-08-31T23:31:14;3.47;;;1.35;;
23712;SDS011;12035;49.978;8.298;2023-08-31T23:36:13;4.57;;;1.85;;
23712;SDS011;12035;49.978;8.298;2023-08-31T23:41:12;3.95;;;1.70;;
23712;SDS011;12035;49.978;8.298;2023-08-31T23:46:09;4.15;;;1.67;;
23712;SDS011;12035;49.978;8.298;2023-08-31T23:51:06;3.35;;;1.58;;
23712;SDS011;12035;49.978;8.298;2023-08-31T23:56:03;3.55;;;1.83;;
